Time;durP1;ratioP1;P1;durP2;ratioP2;P2;SDS_P1;SDS_P2;PMS_P1;PMS_P2;Temp;Humidity;BMP_temperature;BMP_pressure;BME280_temperature;BME280_humidity;BME280_pressure;Samples;Min_cycle;Max_cycle;Signal;HPM_P1;HPM_P2
2022/04/04 00:01:12;;;;;;;4.13;2.60;;;2.90;99.90;;;;;;5092385;28;20036;-67
2022/04/04 00:03:37;;;;;;;4.13;2.65;;;2.80;99.90;;;;;;5093248;28;20426;-67
2022/04/04 00:06:03;;;;;;;4.93;2.72;;;2.80;99.90;;;;;;5074500;28;20048;-67
2022/04/04 00:08:30;;;;;;;7.50;3.80;;;2.80;99.90;;;;;;5074159;28;20115;-67
2022/04/04 00:10:56;;;;;;;5.18;2.97;;;2.70;99.90;;;;;;5074534;28;20495;-67
2022/04/04 00:13:21;;;;;;;5.82;3.22;;;2.80;99.90;;;;;;5093228;28;20078;-67
2022/04/04 00:15:47;;;;;;;6.43;2.97;;;2.70;99.90;;;;;;5092312;28;20520;-67
2022/04/04 00:18:13;;;;;;;6.40;4.30;;;2.80;99.90;;;;;;5074367;28;20479;-67
2022/04/04 00:20:42;;;;;;;3.65;2.53;;;2.80;99.90;;;;;;5074964;28;20126;-67
2022/04/04 00:23:12;;;;;;;4.82;3.03;;;2.80;99.90;;;;;;5090729;28;20801;-67
2022/04/04 00:25:48;;;;;;;6.57;2.95;;;2.80;99.90;;;;;;5074539;28;20052;-67
2022/04/04 00:28:14;;;;;;;9.13;3.53;;;2.80;99.90;;;;;;5092048;28;20122;-67
2022/04/04 00:30:41;;;;;;;4.32;3.10;;;2.90;99.90;;;;;;5073198;28;20080;-67
2022/04/04 00:33:07;;;;;;;4.88;3.22;;;2.90;99.90;;;;;;5090957;28;20495;-67
2022/04/04 00:35:33;;;;;;;5.75;2.95;;;2.90;99.90;;;;;;5092579;28;20093;-67
2022/04/04 00:37:59;;;;;;;8.85;3.33;;;2.90;99.90;;;;;;5091342;28;20127;-67
2022/04/04 00:40:25;;;;;;;3.17;2.42;;;2.90;99.90;;;;;;5092515;28;20040;-67
2022/04/04 00:42:52;;;;;;;4.68;2.83;;;2.90;99.90;;;;;;5091875;28;20118;-67
2022/04/04 00:45:17;;;;;;;3.45;2.75;;;2.90;99.90;;;;;;5073985;28;20086;-67
2022/04/04 00:47:43;;;;;;;4.20;3.15;;;3.00;99.90;;;;;;5073947;28;20142;-67
2022/04/04 00:50:09;;;;;;;6.82;2.95;;;3.00;99.90;;;;;;5091144;28;20048;-67
2022/04/04 00:52:35;;;;;;;3.25;2.90;;;3.00;99.90;;;;;;5092511;28;20044;-67
2022/04/04 00:55:01;;;;;;;7.70;3.38;;;3.00;99.90;;;;;;5073761;28;20089;-67
2022/04/04 00:57:28;;;;;;;6.78;2.80;;;3.00;99.90;;;;;;5091645;28;20119;-67
2022/04/04 00:59:53;;;;;;;4.80;3.20;;;3.00;99.90;;;;;;5074270;28;20052;-67
2022/04/04 01:02:19;;;;;;;4.82;3.08;;;3.00;99.90;;;;;;5073751;28;20058;-67
2022/04/04 01:04:44;;;;;;;6.32;3.83;;;3.10;99.90;;;;;;5091368;28;20043;-67
2022/04/04 01:07:10;;;;;;;5.18;3.10;;;3.10;99.90;;;;;;5073715;28;20121;-67
2022/04/04 01:09:36;;;;;;;4.30;3.50;;;3.00;99.90;;;;;;5074046;28;20040;-67
2022/04/04 01:12:12;;;;;;;5.00;3.38;;;3.10;99.90;;;;;;5091015;28;20090;-67
2022/04/04 01:14:41;;;;;;;4.03;3.15;;;3.10;99.90;;;;;;5092108;28;20051;-67
2022/04/04 01:17:08;;;;;;;3.65;3.33;;;3.10;99.90;;;;;;5091706;28;20036;-67
2022/04/04 01:19:36;;;;;;;5.00;4.43;;;3.10;99.90;;;;;;5091090;28;20051;-68
2022/04/04 01:22:07;;;;;;;5.22;3.75;;;3.10;99.90;;;;;;5073235;28;20040;-68
2022/04/04 01:24:33;;;;;;;7.38;4.78;;;3.00;99.90;;;;;;5074110;28;20101;-68
2022/04/04 01:26:59;;;;;;;9.88;4.88;;;3.00;99.90;;;;;;5090928;28;20486;-68
2022/04/04 01:29:24;;;;;;;7.45;4.47;;;3.00;99.90;;;;;;5073700;28;20048;-67
2022/04/04 01:31:51;;;;;;;6.30;5.18;;;3.00;99.90;;;;;;5073740;28;20475;-67
2022/04/04 01:34:21;;;;;;;6.97;4.82;;;3.00;99.90;;;;;;5090711;28;20036;-68
2022/04/04 01:36:48;;;;;;;7.35;5.18;;;3.00;99.90;;;;;;5073333;28;20048;-68
2022/04/04 01:39:20;;;;;;;7.35;5.63;;;3.10;99.90;;;;;;5072630;28;20438;-67
2022/04/04 01:41:45;;;;;;;7.07;5.10;;;3.10;99.90;;;;;;5073596;28;20505;-68
2022/04/04 01:44:11;;;;;;;10.15;6.45;;;3.10;99.90;;;;;;5073296;28;20048;-68
2022/04/04 01:46:37;;;;;;;13.18;7.70;;;3.10;99.90;;;;;;5094714;28;20032;-68
2022/04/04 01:49:04;;;;;;;10.85;6.30;;;3.20;99.90;;;;;;5077027;28;20056;-68
2022/04/04 01:51:33;;;;;;;10.52;7.38;;;3.20;99.90;;;;;;5095661;28;20479;-67
2022/04/04 01:53:59;;;;;;;10.20;7.50;;;3.30;99.90;;;;;;5076407;28;20051;-68
2022/04/04 01:56:26;;;;;;;12.40;9.07;;;3.30;99.90;;;;;;5095667;28;20043;-68
2022/04/04 01:58:52;;;;;;;13.43;9.05;;;3.30;99.90;;;;;;5077535;28;20097;-67
2022/04/04 02:01:20;;;;;;;13.68;8.10;;;3.40;99.90;;;;;;5094419;28;20052;-67
2022/04/04 02:03:50;;;;;;;13.80;9.15;;;3.40;99.90;;;;;;5077371;28;20051;-67
2022/04/04 02:06:18;;;;;;;12.57;8.55;;;3.40;99.90;;;;;;5095417;28;20127;-67
2022/04/04 02:08:44;;;;;;;13.77;10.15;;;3.40;99.90;;;;;;5094661;28;20512;-67
2022/04/04 02:11:10;;;;;;;15.52;10.38;;;3.50;99.90;;;;;;5076929;28;20509;-68
2022/04/04 02:13:36;;;;;;;15.30;10.38;;;3.50;99.90;;;;;;5095325;28;20085;-67
2022/04/04 02:16:03;;;;;;;14.82;10.68;;;3.50;99.90;;;;;;5076130;28;20048;-67
2022/04/04 02:18:30;;;;;;;16.52;12.30;;;3.50;99.90;;;;;;5077056;28;20060;-68
2022/04/04 02:20:56;;;;;;;17.17;13.05;;;3.60;99.90;;;;;;5076757;28;20040;-68
2022/04/04 02:23:22;;;;;;;16.42;12.52;;;3.60;99.90;;;;;;5075654;28;20044;-67
2022/04/04 02:25:50;;;;;;;19.23;14.10;;;3.60;99.90;;;;;;5076827;28;20084;-67
2022/04/04 02:28:15;;;;;;;16.02;12.10;;;3.60;99.90;;;;;;5094628;28;20050;-67
2022/04/04 02:30:44;;;;;;;18.63;11.35;;;3.60;99.90;;;;;;5094107;28;20127;-67
2022/04/04 02:33:12;;;;;;;17.30;12.75;;;3.70;99.90;;;;;;5076277;28;20044;-68
2022/04/04 02:35:39;;;;;;;21.55;13.93;;;3.70;99.90;;;;;;5076209;28;20086;-67
2022/04/04 02:38:05;;;;;;;18.33;13.10;;;3.70;99.90;;;;;;5094478;28;20456;-66
2022/04/04 02:40:31;;;;;;;22.45;13.50;;;3.70;99.90;;;;;;5076924;28;20441;-67
2022/04/04 02:42:57;;;;;;;21.02;14.32;;;3.70;99.90;;;;;;5075269;28;20054;-67
2022/04/04 02:45:23;;;;;;;21.92;15.38;;;3.80;99.90;;;;;;5094918;28;20040;-67
2022/04/04 02:47:48;;;;;;;20.63;14.75;;;3.80;99.90;;;;;;5076506;28;20052;-67
2022/04/04 02:50:16;;;;;;;19.65;14.15;;;3.80;99.90;;;;;;5092646;28;20527;-67
2022/04/04 02:52:43;;;;;;;18.35;13.13;;;3.80;99.90;;;;;;5082595;28;20475;-67
2022/04/04 02:57:53;;;;;;;20.42;14.65;;;3.90;99.90;;;;;;5106582;28;20506;-67
2022/04/04 03:00:19;;;;;;;15.80;12.45;;;3.90;99.90;;;;;;5088616;28;20043;-67
2022/04/04 03:02:46;;;;;;;19.35;14.60;;;3.90;99.90;;;;;;5082307;28;20055;-67
2022/04/04 03:05:12;;;;;;;21.40;15.07;;;4.00;99.90;;;;;;5109685;28;20082;-67
2022/04/04 03:07:38;;;;;;;20.92;14.68;;;4.00;99.90;;;;;;5074843;28;20421;-67
2022/04/04 03:10:04;;;;;;;17.08;13.05;;;4.10;99.90;;;;;;5074931;28;20044;-67
2022/04/04 03:12:30;;;;;;;17.55;12.75;;;4.10;99.90;;;;;;5092566;28;20546;-67
2022/04/04 03:14:56;;;;;;;19.80;14.43;;;4.20;99.90;;;;;;5074421;28;20410;-67
2022/04/04 03:17:21;;;;;;;21.58;16.27;;;4.20;99.90;;;;;;5075048;28;20048;-67
2022/04/04 03:19:47;;;;;;;18.65;12.18;;;4.20;99.90;;;;;;5092323;28;20032;-67
2022/04/04 03:22:13;;;;;;;18.58;14.52;;;4.20;99.90;;;;;;5095402;28;20056;-67
2022/04/04 03:24:39;;;;;;;18.95;15.02;;;4.20;99.90;;;;;;5073888;28;20040;-67
2022/04/04 03:27:04;;;;;;;15.30;12.05;;;4.20;99.90;;;;;;5082038;28;20054;-69
2022/04/04 03:29:30;;;;;;;25.60;12.90;;;4.30;99.90;;;;;;5094760;28;20060;-67
2022/04/04 03:31:56;;;;;;;22.75;15.50;;;4.30;99.90;;;;;;5112181;28;20055;-67
2022/04/04 03:34:22;;;;;;;24.98;14.05;;;4.30;99.90;;;;;;5093793;28;20048;-67
2022/04/04 03:36:48;;;;;;;17.70;13.68;;;4.40;99.90;;;;;;5113242;28;20046;-67
2022/04/04 03:39:16;;;;;;;19.75;15.20;;;4.40;99.90;;;;;;5111948;28;20127;-67
2022/04/04 03:41:45;;;;;;;18.90;15.30;;;4.40;99.90;;;;;;5113204;28;20055;-67
2022/04/04 03:44:11;;;;;;;21.92;14.25;;;4.50;99.90;;;;;;5112737;28;20044;-67
2022/04/04 03:46:38;;;;;;;23.95;15.20;;;4.60;99.90;;;;;;5094118;28;20418;-67
2022/04/04 03:49:04;;;;;;;25.40;15.15;;;4.60;99.90;;;;;;5076897;28;1025403;-67
2022/04/04 03:51:30;;;;;;;20.15;15.80;;;4.70;99.90;;;;;;5095646;28;20126;-67
2022/04/04 03:53:55;;;;;;;22.75;15.75;;;4.80;99.90;;;;;;5112686;28;20119;-67
2022/04/04 03:56:21;;;;;;;22.80;14.77;;;4.80;99.90;;;;;;5095741;28;20072;-67
2022/04/04 03:58:47;;;;;;;18.40;13.57;;;4.80;99.90;;;;;;5113926;28;20513;-66
2022/04/04 04:01:12;;;;;;;17.25;13.73;;;4.90;99.90;;;;;;5083167;28;20524;-68
2022/04/04 04:03:38;;;;;;;27.15;14.13;;;4.90;99.90;;;;;;5090326;28;20051;-67
2022/04/04 04:06:13;;;;;;;23.67;16.15;;;4.90;99.90;;;;;;5092507;28;20047;-68
2022/04/04 04:08:45;;;;;;;20.98;13.73;;;4.90;99.90;;;;;;5097427;28;20410;-67
2022/04/04 04:11:13;;;;;;;19.30;13.80;;;4.90;99.90;;;;;;5107232;28;20040;-68
2022/04/04 04:13:41;;;;;;;26.80;14.85;;;4.90;99.90;;;;;;5109936;28;20047;-69
2022/04/04 04:16:12;;;;;;;23.02;16.17;;;4.90;99.90;;;;;;5106028;28;20040;-67
2022/04/04 04:18:39;;;;;;;20.52;12.73;;;4.90;99.90;;;;;;5092983;28;20059;-67
2022/04/04 04:21:07;;;;;;;23.17;13.65;;;5.00;99.90;;;;;;5091811;28;20048;-67
2022/04/04 04:23:34;;;;;;;20.55;13.52;;;4.90;99.90;;;;;;5093042;28;20048;-67
2022/04/04 04:26:00;;;;;;;32.65;15.10;;;4.90;99.90;;;;;;5073973;28;20054;-67
2022/04/04 04:28:25;;;;;;;19.13;14.13;;;4.90;99.90;;;;;;5073526;28;20047;-67
2022/04/04 04:30:51;;;;;;;20.48;13.30;;;4.90;99.90;;;;;;5074307;28;20079;-67
2022/04/04 04:33:17;;;;;;;28.90;14.52;;;4.80;99.90;;;;;;5092323;28;20059;-67
2022/04/04 04:35:43;;;;;;;20.30;14.90;;;4.80;99.90;;;;;;5081165;28;20047;-67
2022/04/04 04:38:08;;;;;;;21.08;14.00;;;4.90;99.90;;;;;;5085955;28;20048;-68
2022/04/04 04:40:34;;;;;;;23.85;14.80;;;4.90;99.90;;;;;;5096946;28;20050;-67
2022/04/04 04:43:00;;;;;;;21.80;14.20;;;5.00;99.90;;;;;;5083159;28;20071;-67
2022/04/04 04:45:26;;;;;;;18.13;11.00;;;5.00;99.90;;;;;;5108304;28;20427;-67
2022/04/04 04:47:52;;;;;;;17.77;11.18;;;4.90;99.90;;;;;;5081305;28;20051;-68
2022/04/04 04:50:22;;;;;;;15.70;12.23;;;4.80;99.90;;;;;;5092533;28;20545;-68
2022/04/04 04:52:52;;;;;;;20.42;11.80;;;4.80;99.90;;;;;;5093160;28;20118;-67
2022/04/04 04:55:25;;;;;;;19.08;12.57;;;4.90;99.90;;;;;;5075690;28;20482;-67
2022/04/04 04:57:53;;;;;;;17.77;12.93;;;4.80;99.90;;;;;;5093388;28;20044;-67
2022/04/04 05:00:23;;;;;;;20.45;12.15;;;4.70;99.90;;;;;;5112240;28;20062;-67
2022/04/04 05:05:38;;;;;;;18.02;11.27;;;4.70;99.90;;;;;;5075163;28;20471;-68
2022/04/04 05:08:04;;;;;;;16.55;10.82;;;4.70;99.90;;;;;;5083026;28;20055;-68
2022/04/04 05:10:30;;;;;;;18.10;10.00;;;4.70;99.90;;;;;;5093433;28;20051;-68
2022/04/04 05:12:56;;;;;;;19.35;11.75;;;4.60;99.90;;;;;;5111989;28;20043;-68
2022/04/04 05:15:23;;;;;;;15.23;10.63;;;4.60;99.90;;;;;;5095780;28;20066;-67
2022/04/04 05:17:52;;;;;;;20.58;12.18;;;4.60;99.90;;;;;;5073031;28;20062;-67
2022/04/04 05:20:23;;;;;;;16.35;10.32;;;4.70;99.90;;;;;;5073365;28;20046;-67
2022/04/04 05:22:49;;;;;;;17.52;13.18;;;4.70;99.90;;;;;;5093528;28;20406;-67
2022/04/04 05:25:15;;;;;;;17.10;12.15;;;4.70;99.90;;;;;;5104360;28;20047;-67
2022/04/04 05:27:41;;;;;;;17.50;11.23;;;4.70;99.90;;;;;;5079180;28;20371;-67
2022/04/04 05:30:08;;;;;;;23.58;12.35;;;4.70;99.90;;;;;;5085754;28;20043;-68
2022/04/04 05:32:34;;;;;;;18.63;12.85;;;4.70;99.90;;;;;;5105963;28;20094;-67
2022/04/04 05:35:01;;;;;;;22.00;12.23;;;4.70;99.90;;;;;;5110863;28;20080;-68
2022/04/04 05:37:26;;;;;;;15.05;11.15;;;4.70;99.90;;;;;;5110735;28;20087;-66
2022/04/04 05:39:52;;;;;;;11.48;9.00;;;4.60;99.90;;;;;;5111437;28;20071;-66
2022/04/04 05:42:17;;;;;;;13.32;9.10;;;4.60;99.90;;;;;;5093284;28;20058;-67
2022/04/04 05:44:43;;;;;;;14.35;10.00;;;4.60;99.90;;;;;;5093700;28;20051;-66
2022/04/04 05:47:13;;;;;;;12.77;7.15;;;4.60;99.90;;;;;;5110988;28;20040;-67
2022/04/04 05:49:40;;;;;;;11.00;8.00;;;4.50;99.90;;;;;;5093425;28;20071;-66
2022/04/04 05:52:06;;;;;;;10.75;5.88;;;4.60;99.90;;;;;;5093407;28;20055;-66
2022/04/04 05:54:32;;;;;;;8.57;6.22;;;4.50;99.90;;;;;;5093165;28;20043;-66
2022/04/04 05:56:57;;;;;;;11.65;6.05;;;4.50;99.90;;;;;;5093139;28;20040;-66
2022/04/04 05:59:24;;;;;;;6.43;4.95;;;4.40;99.90;;;;;;5103988;28;20121;-67
2022/04/04 06:01:49;;;;;;;12.25;5.28;;;4.30;99.90;;;;;;5083658;28;20433;-67
2022/04/04 06:04:15;;;;;;;9.13;5.22;;;4.30;99.90;;;;;;5073176;28;20178;-67
2022/04/04 06:06:40;;;;;;;9.82;4.25;;;4.20;99.90;;;;;;5099471;28;20093;-67
2022/04/04 06:09:06;;;;;;;9.07;4.00;;;4.20;99.90;;;;;;5082730;28;20092;-66
2022/04/04 06:11:31;;;;;;;8.77;3.58;;;4.20;99.90;;;;;;5102485;28;20130;-67
2022/04/04 06:13:57;;;;;;;6.65;4.35;;;4.20;99.90;;;;;;5072865;28;20062;-66
2022/04/04 06:16:23;;;;;;;5.97;3.65;;;4.20;99.90;;;;;;5079385;28;20059;-66
2022/04/04 06:18:50;;;;;;;8.40;4.75;;;4.20;99.90;;;;;;5097752;28;20455;-66
2022/04/04 06:21:16;;;;;;;5.80;2.90;;;4.20;99.90;;;;;;5092436;28;20050;-66
2022/04/04 06:23:41;;;;;;;7.47;3.03;;;4.30;99.90;;;;;;5091585;28;20039;-66
2022/04/04 06:26:13;;;;;;;7.50;3.17;;;4.20;99.90;;;;;;5090720;28;20052;-66
2022/04/04 06:28:39;;;;;;;7.38;3.47;;;4.20;99.90;;;;;;5071957;28;20460;-67
2022/04/04 06:31:05;;;;;;;5.72;3.45;;;4.20;99.90;;;;;;5091983;28;20119;-67
2022/04/04 06:33:31;;;;;;;6.50;3.88;;;4.20;99.90;;;;;;5078822;28;20459;-66
2022/04/04 06:35:56;;;;;;;6.55;3.42;;;4.20;99.90;;;;;;5088843;28;20050;-66
2022/04/04 06:38:22;;;;;;;9.13;4.38;;;4.20;99.90;;;;;;5080485;28;20135;-66
2022/04/04 06:40:49;;;;;;;5.07;3.80;;;4.30;99.90;;;;;;5076537;28;20864;-66
2022/04/04 06:43:17;;;;;;;10.80;3.92;;;4.30;99.90;;;;;;5093660;28;20477;-66
2022/04/04 06:45:43;;;;;;;7.50;3.88;;;4.30;99.90;;;;;;5077429;28;20076;-66
2022/04/04 06:48:09;;;;;;;8.15;4.60;;;4.40;99.90;;;;;;5097768;28;20050;-67
2022/04/04 06:50:35;;;;;;;7.65;4.97;;;4.40;99.90;;;;;;5099439;28;20044;-66
2022/04/04 06:53:01;;;;;;;7.57;4.40;;;4.40;99.90;;;;;;5107526;27;20044;-66
2022/04/04 06:55:26;;;;;;;6.43;5.10;;;4.50;99.90;;;;;;5115040;28;20048;-66
2022/04/04 06:57:52;;;;;;;10.13;5.90;;;4.50;99.90;;;;;;5094116;28;20040;-66
2022/04/04 07:00:17;;;;;;;8.75;5.72;;;4.50;99.90;;;;;;5094704;28;20051;-66
2022/04/04 07:02:44;;;;;;;8.77;5.10;;;4.50;99.90;;;;;;5088411;28;20055;-66
2022/04/04 07:05:10;;;;;;;10.25;5.95;;;4.60;99.90;;;;;;5114469;28;20047;-67
2022/04/04 07:07:36;;;;;;;7.63;5.97;;;4.60;99.90;;;;;;5096277;28;20197;-66
2022/04/04 07:10:03;;;;;;;13.32;7.32;;;4.60;99.90;;;;;;5094258;28;20043;-67
2022/04/04 07:12:29;;;;;;;18.35;7.90;;;4.60;99.90;;;;;;5105902;28;20092;-66
2022/04/04 07:14:55;;;;;;;11.95;7.30;;;4.70;99.90;;;;;;5085226;28;20120;-67
2022/04/04 07:17:21;;;;;;;10.75;6.55;;;4.70;99.90;;;;;;5093383;28;20046;-66
2022/04/04 07:19:46;;;;;;;15.50;8.98;;;4.70;99.90;;;;;;5092904;28;20047;-67
2022/04/04 07:22:14;;;;;;;11.65;8.40;;;4.70;99.90;;;;;;5095630;28;20040;-67
2022/04/04 07:24:40;;;;;;;20.42;9.02;;;4.70;99.90;;;;;;5113570;28;20794;-66
2022/04/04 07:27:05;;;;;;;14.85;8.57;;;4.70;99.90;;;;;;5114114;28;20067;-66
2022/04/04 07:29:31;;;;;;;13.73;8.23;;;4.80;99.90;;;;;;5110683;28;20414;-67
2022/04/04 07:31:57;;;;;;;14.77;8.80;;;4.80;99.90;;;;;;5100252;28;20112;-67
2022/04/04 07:34:22;;;;;;;15.32;9.60;;;4.90;99.90;;;;;;5081931;28;20052;-66
2022/04/04 07:36:48;;;;;;;13.32;8.93;;;4.90;99.90;;;;;;5093733;28;20043;-67
2022/04/04 07:39:13;;;;;;;15.85;10.10;;;4.90;99.90;;;;;;5092858;28;20054;-67
2022/04/04 07:41:39;;;;;;;12.63;9.73;;;4.90;99.90;;;;;;5075361;28;20044;-67
2022/04/04 07:44:05;;;;;;;17.88;9.48;;;5.00;99.90;;;;;;5096320;28;20874;-67
2022/04/04 07:46:31;;;;;;;13.10;9.07;;;5.10;99.90;;;;;;5090385;28;20039;-67
2022/04/04 07:48:58;;;;;;;15.57;9.00;;;5.10;99.90;;;;;;5108145;27;20071;-67
2022/04/04 07:51:24;;;;;;;15.27;8.95;;;5.10;99.90;;;;;;5110224;27;20046;-67
2022/04/04 07:53:50;;;;;;;13.90;9.77;;;5.20;99.90;;;;;;5092655;28;20121;-67
2022/04/04 07:56:15;;;;;;;11.18;8.07;;;5.20;99.90;;;;;;5086213;28;20056;-66
2022/04/04 07:58:41;;;;;;;11.50;9.05;;;5.30;99.90;;;;;;5100211;28;20044;-66
2022/04/04 08:01:07;;;;;;;10.57;7.45;;;5.40;99.90;;;;;;5081484;28;20402;-69
2022/04/04 08:03:34;;;;;;;11.65;7.80;;;5.30;99.90;;;;;;5104763;28;20039;-69
2022/04/04 08:05:59;;;;;;;11.80;7.93;;;5.40;99.90;;;;;;5079816;28;20044;-69
2022/04/04 08:08:25;;;;;;;13.48;8.63;;;5.40;99.90;;;;;;5094530;28;20089;-67
2022/04/04 08:10:54;;;;;;;12.88;8.48;;;5.40;99.90;;;;;;5101643;27;20036;-68
2022/04/04 08:13:22;;;;;;;11.52;7.47;;;5.40;99.90;;;;;;5095065;28;20043;-67
2022/04/04 08:15:47;;;;;;;13.60;7.88;;;5.50;99.90;;;;;;5090024;28;20051;-68
2022/04/04 08:18:13;;;;;;;8.35;7.15;;;5.50;99.90;;;;;;5097519;28;20043;-68
2022/04/04 08:20:39;;;;;;;11.90;6.40;;;5.50;99.90;;;;;;5073510;28;20058;-68
2022/04/04 08:23:08;;;;;;;10.85;6.65;;;5.50;99.90;;;;;;5108738;28;20047;-67
2022/04/04 08:25:36;;;;;;;8.80;6.40;;;5.50;99.90;;;;;;5113472;28;20036;-68
2022/04/04 08:28:02;;;;;;;7.63;6.28;;;5.50;99.90;;;;;;5076145;28;20067;-68
2022/04/04 08:30:29;;;;;;;8.77;5.97;;;5.60;99.90;;;;;;5086083;28;20079;-67
2022/04/04 08:32:55;;;;;;;10.23;7.18;;;5.50;99.90;;;;;;5075788;28;20048;-67
2022/04/04 08:35:21;;;;;;;6.63;5.55;;;5.60;99.90;;;;;;5093937;28;20035;-67
2022/04/04 08:37:47;;;;;;;9.20;5.47;;;5.60;99.90;;;;;;5096542;28;20043;-67
2022/04/04 08:40:14;;;;;;;7.40;4.72;;;5.60;99.90;;;;;;5107934;28;20044;-66
2022/04/04 08:42:41;;;;;;;9.25;5.75;;;5.60;99.90;;;;;;5110018;28;20043;-66
2022/04/04 08:45:08;;;;;;;5.45;4.95;;;5.60;99.90;;;;;;5111040;28;20051;-66
2022/04/04 08:47:34;;;;;;;6.80;4.40;;;5.70;99.90;;;;;;5077953;28;20043;-67
2022/04/04 08:50:01;;;;;;;4.85;3.90;;;5.80;99.90;;;;;;5073104;28;20101;-67
2022/04/04 08:52:27;;;;;;;8.93;5.65;;;5.80;99.90;;;;;;5092540;28;20076;-67
2022/04/04 08:54:53;;;;;;;6.90;4.85;;;5.80;99.90;;;;;;5094547;28;20368;-66
2022/04/04 08:57:19;;;;;;;8.05;4.85;;;5.80;99.90;;;;;;5103023;27;20099;-66
2022/04/04 08:59:45;;;;;;;7.10;5.00;;;5.80;99.90;;;;;;5088325;28;20474;-66
2022/04/04 09:02:15;;;;;;;10.32;4.38;;;5.90;99.90;;;;;;5083224;28;20036;-67
2022/04/04 09:04:41;;;;;;;9.25;4.68;;;5.90;99.90;;;;;;5086368;28;20051;-67
2022/04/04 09:07:11;;;;;;;6.57;4.68;;;5.90;99.90;;;;;;5074298;28;20190;-66
2022/04/04 09:09:42;;;;;;;6.97;4.25;;;5.90;99.90;;;;;;5076889;28;20120;-68
2022/04/04 09:12:19;;;;;;;7.28;4.15;;;5.90;99.90;;;;;;5104009;28;20040;-67
2022/04/04 09:14:47;;;;;;;6.15;4.18;;;5.90;99.90;;;;;;5105218;28;20088;-67
2022/04/04 09:17:14;;;;;;;8.88;4.40;;;5.90;99.90;;;;;;5093966;28;20047;-67
2022/04/04 09:19:40;;;;;;;5.07;3.65;;;6.00;99.90;;;;;;5085456;28;20059;-67
2022/04/04 09:22:10;;;;;;;6.85;4.53;;;6.10;99.90;;;;;;5105645;28;20493;-67
2022/04/04 09:24:56;;;;;;;5.60;3.88;;;6.00;99.90;;;;;;5092817;28;20118;-66
2022/04/04 09:27:29;;;;;;;8.18;4.20;;;6.10;99.90;;;;;;5112587;28;20070;-67
2022/04/04 09:30:01;;;;;;;8.30;4.53;;;6.10;99.90;;;;;;5090920;28;20032;-68
2022/04/04 09:32:38;;;;;;;5.60;4.40;;;6.10;99.90;;;;;;5103232;28;20043;-68
2022/04/04 09:35:15;;;;;;;9.85;3.35;;;6.10;99.90;;;;;;5092703;28;20356;-68
2022/04/04 09:37:45;;;;;;;4.88;3.35;;;6.20;99.90;;;;;;5080536;28;20047;-67
2022/04/04 09:40:23;;;;;;;7.80;3.15;;;6.10;99.90;;;;;;5095745;28;20043;-67
2022/04/04 09:42:52;;;;;;;7.13;3.30;;;6.20;99.90;;;;;;5094503;28;20499;-67
2022/04/04 09:45:19;;;;;;;3.72;3.05;;;6.30;99.90;;;;;;5077684;28;20072;-70
2022/04/04 09:47:45;;;;;;;4.93;3.30;;;6.30;99.90;;;;;;5087490;28;20047;-70
2022/04/04 09:50:29;;;;;;;11.68;4.00;;;6.30;99.90;;;;;;5093306;28;20131;-69
2022/04/04 09:52:57;;;;;;;6.65;3.28;;;6.30;99.90;;;;;;5089566;28;20039;-69
2022/04/04 09:55:34;;;;;;;6.45;2.90;;;6.40;99.90;;;;;;5092416;28;20108;-69
2022/04/04 09:58:04;;;;;;;6.40;3.78;;;6.40;99.90;;;;;;5082521;28;20047;-69
2022/04/04 10:00:30;;;;;;;5.65;3.50;;;6.40;99.90;;;;;;5072340;28;20056;-69
2022/04/04 10:02:58;;;;;;;8.43;3.50;;;6.40;99.90;;;;;;5090847;28;20047;-69
2022/04/04 10:05:25;;;;;;;7.32;3.42;;;6.50;99.90;;;;;;5078910;28;20036;-69
2022/04/04 10:07:55;;;;;;;5.35;3.05;;;6.50;99.90;;;;;;5114994;28;20122;-69
2022/04/04 10:10:23;;;;;;;6.65;3.20;;;6.50;99.90;;;;;;5096807;28;20132;-69
2022/04/04 10:12:51;;;;;;;6.95;3.90;;;6.50;99.90;;;;;;5096519;28;20481;-69
2022/04/04 10:15:17;;;;;;;4.25;2.53;;;6.50;99.90;;;;;;5116119;28;20142;-68
2022/04/04 10:17:44;;;;;;;5.07;2.40;;;6.50;99.90;;;;;;5086672;28;20146;-69
2022/04/04 10:20:11;;;;;;;5.07;3.00;;;6.50;99.90;;;;;;5094839;28;20068;-70
2022/04/04 10:22:38;;;;;;;19.98;3.90;;;6.60;99.90;;;;;;5078072;28;20040;-71
2022/04/04 10:25:07;;;;;;;10.45;3.30;;;6.50;99.90;;;;;;5076307;28;20391;-70
2022/04/04 10:27:36;;;;;;;5.00;2.67;;;6.60;99.90;;;;;;5114781;28;20047;-69
2022/04/04 10:30:06;;;;;;;7.10;2.95;;;6.60;99.90;;;;;;5116108;28;20043;-69
2022/04/04 10:32:33;;;;;;;7.07;2.53;;;6.60;99.90;;;;;;5094114;28;20052;-69
2022/04/04 10:35:12;;;;;;;6.72;2.60;;;6.60;99.90;;;;;;5115160;28;20043;-68
2022/04/04 10:37:45;;;;;;;4.95;2.50;;;6.60;99.90;;;;;;5116008;28;20042;-68
2022/04/04 10:40:28;;;;;;;3.97;2.58;;;6.60;99.90;;;;;;5107037;28;20482;-67
2022/04/04 10:43:10;;;;;;;3.97;2.47;;;6.60;99.90;;;;;;5076585;28;20044;-67
2022/04/04 10:45:53;;;;;;;2.25;1.52;;;6.60;99.90;;;;;;5096188;28;20040;-67
2022/04/04 10:48:20;;;;;;;2.40;1.98;;;6.70;99.90;;;;;;5114442;28;20056;-68
2022/04/04 10:50:47;;;;;;;1.50;1.30;;;6.70;99.90;;;;;;5110874;28;20040;-68
2022/04/04 10:53:12;;;;;;;2.58;1.60;;;6.70;99.90;;;;;;5087466;27;20039;-68
2022/04/04 10:55:48;;;;;;;2.90;1.67;;;6.70;99.90;;;;;;5101394;28;20500;-68
2022/04/04 10:58:31;;;;;;;3.67;1.70;;;6.70;99.90;;;;;;5095189;28;20141;-68
2022/04/04 11:00:57;;;;;;;3.65;1.58;;;6.70;99.90;;;;;;5104827;28;20044;-68
2022/04/04 11:03:33;;;;;;;4.05;1.17;;;6.70;99.90;;;;;;5075756;28;20401;-67
2022/04/04 11:09:12;;;;;;;1.40;1.30;;;6.80;99.90;;;;;;5105769;28;20070;-67
2022/04/04 11:11:41;;;;;;;3.42;1.20;;;6.80;99.90;;;;;;5110082;28;20047;-67
2022/04/04 11:14:08;;;;;;;3.05;1.52;;;6.80;99.90;;;;;;5102230;28;20088;-67
2022/04/04 11:20:04;;;;;;;5.55;1.70;;;6.90;99.90;;;;;;5103522;28;20052;-67
2022/04/04 11:22:45;;;;;;;1.73;1.30;;;6.90;99.90;;;;;;5086440;28;20051;-67
2022/04/04 11:25:21;;;;;;;1.75;0.80;;;7.00;99.90;;;;;;5097414;28;20040;-67
2022/04/04 11:27:48;;;;;;;4.93;1.13;;;7.00;99.90;;;;;;5090142;28;20057;-67
2022/04/04 11:30:16;;;;;;;1.88;1.00;;;7.00;99.90;;;;;;5104559;28;20158;-67
2022/04/04 11:32:44;;;;;;;3.10;1.17;;;7.00;99.90;;;;;;5112534;28;20051;-67
2022/04/04 11:35:32;;;;;;;;;;;;;;;;;;;;;
2022/04/04 11:38:02;;;;;;;3.92;1.05;;;7.10;99.90;;;;;;5108782;28;20052;-67
2022/04/04 11:40:34;;;;;;;1.92;0.90;;;7.10;99.90;;;;;;5114244;28;20041;-67
2022/04/04 11:43:02;;;;;;;1.30;1.02;;;7.10;99.90;;;;;;5114175;28;20039;-67
2022/04/04 11:48:28;;;;;;;4.47;1.33;;;7.20;99.90;;;;;;5096286;28;20063;-68
2022/04/04 11:50:58;;;;;;;1.10;0.80;;;7.20;99.90;;;;;;5112238;27;20075;-67
2022/04/04 11:53:26;;;;;;;1.25;0.70;;;7.20;99.90;;;;;;5093530;28;20414;-67
2022/04/04 11:56:02;;;;;;;1.35;0.60;;;7.30;99.90;;;;;;5096805;28;20047;-66
2022/04/04 11:58:28;;;;;;;1.25;1.00;;;7.20;99.90;;;;;;5100473;28;20050;-67
2022/04/04 12:01:07;;;;;;;1.38;0.60;;;7.30;99.90;;;;;;5095437;28;20047;-67
2022/04/04 12:03:43;;;;;;;;;;;;;;;;;;;;;
2022/04/04 12:06:22;;;;;;;;;;;;;;;;;;;;;
2022/04/04 12:08:47;;;;;;;0.80;0.75;;;7.30;99.90;;;;;;5071659;28;20090;-67
2022/04/04 12:11:13;;;;;;;2.78;0.73;;;7.40;99.90;;;;;;5093796;28;20040;-66
2022/04/04 12:14:00;;;;;;;26.60;3.50;;;7.40;99.90;;;;;;5094787;28;20100;-66
2022/04/04 12:16:27;;;;;;;1.60;1.20;;;8.80;99.90;;;;;;5098541;28;20040;-66
2022/04/04 12:18:53;;;;;;;1.25;1.15;;;7.50;99.90;;;;;;5087536;28;20142;-66
2022/04/04 12:21:22;;;;;;;1.75;1.23;;;7.50;99.90;;;;;;5084284;28;20043;-66
2022/04/04 12:26:34;;;;;;;1.77;1.13;;;7.50;99.90;;;;;;5098000;28;20040;-67
2022/04/04 12:29:00;;;;;;;2.63;1.10;;;7.60;99.90;;;;;;5081681;28;20051;-66
2022/04/04 12:31:27;;;;;;;1.98;1.30;;;7.70;99.90;;;;;;5088677;28;20049;-66
2022/04/04 12:34:10;;;;;;;2.05;1.40;;;7.80;99.90;;;;;;5100919;27;20058;-66
2022/04/04 12:36:44;;;;;;;2.13;1.70;;;7.80;99.90;;;;;;5079507;28;20044;-66
2022/04/04 12:39:20;;;;;;;2.20;2.00;;;7.90;99.90;;;;;;5102341;28;20047;-63
2022/04/04 12:41:46;;;;;;;1.50;1.40;;;7.80;99.90;;;;;;5102802;28;20047;-64
2022/04/04 12:44:23;;;;;;;1.83;1.35;;;8.00;99.90;;;;;;5102690;28;20094;-75
2022/04/04 12:46:49;;;;;;;3.28;2.50;;;8.00;99.90;;;;;;5101606;28;20513;-69
2022/04/04 12:49:19;;;;;;;2.97;2.08;;;8.10;99.90;;;;;;5112116;28;20060;-67
2022/04/04 12:51:58;;;;;;;4.35;2.17;;;8.10;99.90;;;;;;5107507;28;20419;-68
2022/04/04 12:54:28;;;;;;;1.83;1.58;;;8.00;99.90;;;;;;5094591;27;20390;-68
2022/04/04 12:56:55;;;;;;;1.63;1.50;;;8.00;99.90;;;;;;5100452;28;20051;-68
2022/04/04 12:59:22;;;;;;;3.05;2.15;;;8.00;99.90;;;;;;5104365;28;20039;-67
2022/04/04 13:02:05;;;;;;;2.15;1.98;;;8.10;99.90;;;;;;5074103;28;20047;-67
2022/04/04 13:04:32;;;;;;;1.95;1.73;;;8.20;99.90;;;;;;5102600;28;20044;-68
2022/04/04 13:07:00;;;;;;;3.13;1.90;;;8.10;99.90;;;;;;5113130;28;20046;-68
2022/04/04 13:09:27;;;;;;;2.30;2.10;;;8.20;99.90;;;;;;5082917;28;20063;-68
2022/04/04 13:11:55;;;;;;;4.85;2.25;;;8.20;99.90;;;;;;5111179;28;20039;-67
2022/04/04 13:14:25;;;;;;;2.38;2.00;;;8.30;99.90;;;;;;5089148;28;20482;-67